Time;durP1;ratioP1;P1;durP2;ratioP2;P2;SDS_P1;SDS_P2;PMS_P1;PMS_P2;Temp;Humidity;BMP_temperature;BMP_pressure;BME280_temperature;BME280_humidity;BME280_pressure;Samples;Min_cycle;Max_cycle;Signal;HPM_P1;HPM_P2
2022/09/12 00:01:03;;;;;;;;;;;;;;;11.63;100.00;98772.23;105088;1270;62079;-70
2022/09/12 00:03:41;;;;;;;;;;;;;;;11.59;100.00;98769.30;105105;1270;62081;-70
2022/09/12 00:06:08;;;;;;;;;;;;;;;11.57;100.00;98769.31;104988;1270;62100;-70
2022/09/12 00:08:34;;;;;;;;;;;;;;;11.55;100.00;98769.83;105088;1270;76191;-70
2022/09/12 00:11:03;;;;;;;;;;;;;;;11.53;100.00;98774.80;104989;1271;62236;-70
2022/09/12 00:13:29;;;;;;;;;;;;;;;11.50;100.00;98773.91;105096;1270;74524;-70
2022/09/12 00:15:55;;;;;;;;;;;;;;;11.48;100.00;98772.52;105104;1270;62204;-70
2022/09/12 00:18:21;;;;;;;;;;;;;;;11.47;100.00;98774.70;105116;1270;62096;-69
2022/09/12 00:20:48;;;;;;;;;;;;;;;11.47;100.00;98773.46;105106;1270;61990;-70
2022/09/12 00:23:14;;;;;;;;;;;;;;;11.46;100.00;98779.02;105120;1270;62128;-70
2022/09/12 00:25:44;;;;;;;;;;;;;;;11.45;100.00;98773.20;105143;1270;62177;-71
2022/09/12 00:28:10;;;;;;;;;;;;;;;11.42;100.00;98775.89;105118;1270;62175;-70
2022/09/12 00:30:40;;;;;;;;;;;;;;;11.42;100.00;98774.18;105236;1270;62069;-70
2022/09/12 00:33:06;;;;;;;;;;;;;;;11.41;100.00;98778.13;105109;1270;76826;-70
2022/09/12 00:35:33;;;;;;;;;;;;;;;11.40;100.00;98779.23;105093;1270;62193;-70
2022/09/12 00:37:58;;;;;;;;;;;;;;;11.41;100.00;98778.82;105100;1270;62218;-70
2022/09/12 00:40:26;;;;;;;;;;;;;;;11.42;100.00;98779.86;105089;1270;62183;-71
2022/09/12 00:42:52;;;;;;;;;;;;;;;11.41;100.00;98781.52;105100;1270;62073;-70
2022/09/12 00:45:23;;;;;;;;;;;;;;;11.42;100.00;98781.47;105270;1270;62207;-71
2022/09/12 00:47:49;;;;;;;;;;;;;;;11.44;100.00;98785.41;105119;1270;70753;-71
2022/09/12 00:50:16;;;;;;;;;;;;;;;11.46;100.00;98782.09;105121;1270;62099;-71
2022/09/12 00:52:44;;;;;;;;;;;;;;;11.47;100.00;98779.11;105139;1270;62108;-70
2022/09/12 00:55:14;;;;;;;;;;;;;;;11.49;100.00;98783.77;105272;1271;62095;-70
2022/09/12 00:58:01;;;;;;;;;;;;;;;11.53;100.00;98783.70;105135;1270;76220;-70
2022/09/12 01:00:27;;;;;;;;;;;;;;;11.57;100.00;98780.89;105152;1270;69472;-71
2022/09/12 01:03:01;;;;;;;;;;;;;;;11.60;100.00;98779.92;105098;1271;62102;-71
2022/09/12 01:05:28;;;;;;;;;;;;;;;11.62;100.00;98777.80;104926;1272;62223;-71
2022/09/12 01:07:55;;;;;;;;;;;;;;;11.63;100.00;98775.62;105137;1270;62167;-71
2022/09/12 01:10:22;;;;;;;;;;;;;;;11.63;100.00;98780.21;105212;1270;76215;-71
2022/09/12 01:12:49;;;;;;;;;;;;;;;11.64;100.00;98778.53;105115;1271;62141;-71
2022/09/12 01:15:15;;;;;;;;;;;;;;;11.65;100.00;98782.20;105099;1271;62166;-71
2022/09/12 01:17:52;;;;;;;;;;;;;;;11.64;100.00;98775.54;105256;1270;62418;-71
2022/09/12 01:20:31;;;;;;;;;;;;;;;11.63;100.00;98776.36;105215;1270;62131;-71
2022/09/12 01:23:09;;;;;;;;;;;;;;;11.61;100.00;98777.05;105155;1271;77412;-71
2022/09/12 01:25:38;;;;;;;;;;;;;;;11.58;100.00;98778.46;104898;1271;69533;-70
2022/09/12 01:28:07;;;;;;;;;;;;;;;11.56;100.00;98780.23;105094;1270;74623;-71
2022/09/12 01:30:33;;;;;;;;;;;;;;;11.54;100.00;98782.91;105124;1270;62185;-70
2022/09/12 01:33:17;;;;;;;;;;;;;;;11.51;100.00;98780.10;105150;1271;62142;-71
2022/09/12 01:35:49;;;;;;;;;;;;;;;11.48;100.00;98785.96;105121;1271;76211;-71
2022/09/12 01:38:18;;;;;;;;;;;;;;;11.46;100.00;98781.88;105150;1270;69426;-70
2022/09/12 01:40:47;;;;;;;;;;;;;;;11.42;100.00;98783.55;105173;1270;74672;-71
2022/09/12 01:43:44;;;;;;;;;;;;;;;11.38;100.00;98784.39;105125;1271;62133;-70
2022/09/12 01:46:30;;;;;;;;;;;;;;;11.34;100.00;98788.94;104473;1278;62064;-71
2022/09/12 01:48:58;;;;;;;;;;;;;;;11.31;100.00;98791.33;104479;1278;76268;-70
2022/09/12 01:51:34;;;;;;;;;;;;;;;11.28;100.00;98793.66;104473;1278;69401;-70
2022/09/12 01:54:12;;;;;;;;;;;;;;;11.27;100.00;98792.19;104508;1277;72659;-71
2022/09/12 01:56:40;;;;;;;;;;;;;;;11.25;100.00;98791.77;104459;1277;62245;-71
2022/09/12 01:59:14;;;;;;;;;;;;;;;11.23;100.00;98793.32;104116;1279;62186;-71
2022/09/12 02:01:44;;;;;;;;;;;;;;;11.20;100.00;98792.65;104619;1278;76166;-70
2022/09/12 02:04:16;;;;;;;;;;;;;;;11.18;100.00;98788.86;104460;1278;70232;-70
2022/09/12 02:06:48;;;;;;;;;;;;;;;11.16;100.00;98788.88;104509;1278;74609;-69
2022/09/12 02:09:17;;;;;;;;;;;;;;;11.13;100.00;98790.30;104293;1279;62304;-71
2022/09/12 02:11:43;;;;;;;;;;;;;;;11.11;100.00;98791.33;104494;1278;62254;-70
2022/09/12 02:14:16;;;;;;;;;;;;;;;11.09;100.00;98792.21;104467;1279;62118;-70
2022/09/12 02:16:46;;;;;;;;;;;;;;;11.09;100.00;98794.55;104508;1279;69460;-71
2022/09/12 02:19:15;;;;;;;;;;;;;;;11.11;100.00;98794.93;104453;1277;74504;-71
2022/09/12 02:21:44;;;;;;;;;;;;;;;11.14;100.00;98793.66;104446;1278;62103;-71
2022/09/12 02:24:11;;;;;;;;;;;;;;;11.14;100.00;98793.08;105124;1270;62097;-71
2022/09/12 02:26:43;;;;;;;;;;;;;;;11.15;100.00;98795.89;104939;1271;77397;-70
2022/09/12 02:29:08;;;;;;;;;;;;;;;11.15;100.00;98794.96;105144;1271;69697;-71
2022/09/12 02:31:37;;;;;;;;;;;;;;;11.15;100.00;98798.71;105120;1271;62191;-71
2022/09/12 02:34:12;;;;;;;;;;;;;;;11.15;100.00;98793.97;105138;1270;62117;-71
2022/09/12 02:36:54;;;;;;;;;;;;;;;11.16;100.00;98792.05;105147;1270;62197;-71
2022/09/12 02:39:21;;;;;;;;;;;;;;;11.18;100.00;98790.13;105108;1270;76290;-71
2022/09/12 02:41:49;;;;;;;;;;;;;;;11.21;100.00;98794.72;105202;1271;61996;-70
2022/09/12 02:44:15;;;;;;;;;;;;;;;11.24;100.00;98793.82;105140;1271;74856;-70
2022/09/12 02:46:44;;;;;;;;;;;;;;;11.27;100.00;98792.91;105152;1271;62150;-71
2022/09/12 02:49:09;;;;;;;;;;;;;;;11.28;100.00;98794.41;105161;1271;62043;-71
2022/09/12 02:51:36;;;;;;;;;;;;;;;11.30;100.00;98792.48;105186;1270;62125;-71
2022/09/12 02:54:05;;;;;;;;;;;;;;;11.30;100.00;98790.52;105153;1271;62251;-70
2022/09/12 02:56:31;;;;;;;;;;;;;;;11.29;100.00;98788.42;105095;1271;74085;-70
2022/09/12 02:59:02;;;;;;;;;;;;;;;11.28;100.00;98788.04;105101;1271;62273;-70
2022/09/12 03:01:31;;;;;;;;;;;;;;;11.26;100.00;98788.31;105134;1271;61986;-70
2022/09/12 03:04:12;;;;;;;;;;;;;;;11.25;100.00;98789.65;105164;1271;77758;-70
2022/09/12 03:06:58;;;;;;;;;;;;;;;11.23;100.00;98786.58;105134;1271;69683;-69
2022/09/12 03:09:36;;;;;;;;;;;;;;;11.20;100.00;98783.60;105037;1273;71589;-71
2022/09/12 03:12:08;;;;;;;;;;;;;;;11.16;100.00;98785.14;105113;1270;62048;-70
2022/09/12 03:14:34;;;;;;;;;;;;;;;11.13;100.00;98779.84;105078;1271;62370;-70
2022/09/12 03:17:03;;;;;;;;;;;;;;;11.11;100.00;98780.36;105096;1271;62204;-70
2022/09/12 03:19:38;;;;;;;;;;;;;;;11.09;100.00;98783.32;105034;1271;69480;-70
2022/09/12 03:22:10;;;;;;;;;;;;;;;11.10;100.00;98788.09;104934;1274;72046;-70
2022/09/12 03:24:39;;;;;;;;;;;;;;;11.11;100.00;98789.77;105085;1270;62298;-70
2022/09/12 03:27:15;;;;;;;;;;;;;;;11.13;100.00;98796.39;105088;1271;62078;-70
2022/09/12 03:29:42;;;;;;;;;;;;;;;11.14;100.00;98798.09;105062;1271;76182;-70
2022/09/12 03:32:08;;;;;;;;;;;;;;;11.16;100.00;98797.42;104953;1271;62053;-71
2022/09/12 03:34:34;;;;;;;;;;;;;;;11.17;100.00;98800.70;105170;1271;62193;-71
2022/09/12 03:37:01;;;;;;;;;;;;;;;11.18;100.00;98803.96;105128;1271;62189;-71
2022/09/12 03:39:27;;;;;;;;;;;;;;;11.19;100.00;98804.14;105149;1270;62538;-71
2022/09/12 03:41:54;;;;;;;;;;;;;;;11.18;100.00;98804.73;105142;1271;62156;-70
2022/09/12 03:44:20;;;;;;;;;;;;;;;11.15;100.00;98804.05;105159;1271;62055;-71
2022/09/12 03:46:46;;;;;;;;;;;;;;;11.14;100.00;98806.81;105112;1271;63957;-70
2022/09/12 03:49:12;;;;;;;;;;;;;;;11.13;100.00;98808.98;105282;1271;62187;-70
2022/09/12 03:51:39;;;;;;;;;;;;;;;11.12;100.00;98801.79;105137;1271;62193;-70
2022/09/12 03:54:05;;;;;;;;;;;;;;;11.10;100.00;98802.47;105134;1271;62128;-70
2022/09/12 03:56:31;;;;;;;;;;;;;;;11.06;100.00;98800.98;105148;1271;62082;-70
2022/09/12 03:58:58;;;;;;;;;;;;;;;11.00;100.00;98809.58;105098;1271;62315;-70
2022/09/12 04:01:24;;;;;;;;;;;;;;;10.94;100.00;98807.69;105094;1271;62195;-70
2022/09/12 04:03:51;;;;;;;;;;;;;;;10.89;100.00;98806.47;105104;1271;62087;-70
2022/09/12 04:06:19;;;;;;;;;;;;;;;10.84;100.00;98805.02;105115;1271;62073;-70
2022/09/12 04:08:47;;;;;;;;;;;;;;;10.81;100.00;98807.59;105115;1271;62198;-70
2022/09/12 04:11:15;;;;;;;;;;;;;;;10.77;100.00;98808.75;105130;1271;73464;-71
2022/09/12 04:13:42;;;;;;;;;;;;;;;10.74;100.00;98811.61;105119;1271;62079;-69
2022/09/12 04:16:09;;;;;;;;;;;;;;;10.71;100.00;98813.61;105116;1271;62056;-70
2022/09/12 04:18:35;;;;;;;;;;;;;;;10.68;100.00;98817.15;105234;1270;75777;-70
2022/09/12 04:21:05;;;;;;;;;;;;;;;10.68;100.00;98818.45;105137;1271;62184;-69
2022/09/12 04:23:32;;;;;;;;;;;;;;;10.66;100.00;98820.33;105167;1271;73328;-70
2022/09/12 04:25:59;;;;;;;;;;;;;;;10.67;100.00;98820.96;105086;1271;62111;-70
2022/09/12 04:28:25;;;;;;;;;;;;;;;10.70;100.00;98825.58;105131;1271;62075;-70
2022/09/12 04:30:51;;;;;;;;;;;;;;;10.75;100.00;98821.69;105129;1270;62082;-70
2022/09/12 04:33:17;;;;;;;;;;;;;;;10.85;100.00;98820.26;105291;1271;62142;-71
2022/09/12 04:35:44;;;;;;;;;;;;;;;10.94;100.00;98822.98;105114;1271;62158;-70
2022/09/12 04:38:10;;;;;;;;;;;;;;;10.95;100.00;98823.95;105136;1271;62148;-69
2022/09/12 04:40:36;;;;;;;;;;;;;;;10.98;100.00;98825.34;105157;1271;62142;-71
2022/09/12 04:43:03;;;;;;;;;;;;;;;11.11;100.00;98828.89;105115;1271;62109;-71
2022/09/12 04:45:29;;;;;;;;;;;;;;;11.22;100.00;98830.77;104900;1271;62205;-70
2022/09/12 04:47:54;;;;;;;;;;;;;;;11.17;100.00;98836.98;105124;1270;62184;-71
2022/09/12 04:50:21;;;;;;;;;;;;;;;11.15;100.00;98836.23;105112;1271;62713;-71
2022/09/12 04:52:48;;;;;;;;;;;;;;;11.14;100.00;98834.52;105245;1270;62081;-69
2022/09/12 04:55:14;;;;;;;;;;;;;;;11.14;100.00;98833.78;104928;1274;62114;-71
2022/09/12 04:57:40;;;;;;;;;;;;;;;11.17;100.00;98838.41;104898;1275;62619;-70
2022/09/12 05:00:13;;;;;;;;;;;;;;;11.20;100.00;98838.35;105057;1270;62387;-69
2022/09/12 05:02:42;;;;;;;;;;;;;;;11.28;100.00;98841.22;105103;1270;62087;-70
2022/09/12 05:05:10;;;;;;;;;;;;;;;11.35;100.00;98841.55;105171;1270;62525;-70
2022/09/12 05:07:36;;;;;;;;;;;;;;;11.46;100.00;98848.23;105136;1271;77441;-70
2022/09/12 05:10:03;;;;;;;;;;;;;;;11.54;100.00;98847.65;105181;1268;62070;-70
2022/09/12 05:12:31;;;;;;;;;;;;;;;11.62;100.00;98849.71;105044;1270;73616;-71
2022/09/12 05:14:57;;;;;;;;;;;;;;;11.79;100.00;98851.52;105058;1270;62220;-70
2022/09/12 05:17:24;;;;;;;;;;;;;;;12.05;100.00;98850.83;105118;1270;61961;-70
2022/09/12 05:19:50;;;;;;;;;;;;;;;12.36;100.00;98852.05;105150;1271;62187;-70
2022/09/12 05:22:16;;;;;;;;;;;;;;;12.64;100.00;98851.67;105126;1270;62085;-70
2022/09/12 05:24:43;;;;;;;;;;;;;;;12.65;100.00;98855.54;105132;1270;62151;-70
2022/09/12 05:27:10;;;;;;;;;;;;;;;12.94;100.00;98857.68;105067;1270;62315;-70
2022/09/12 05:29:35;;;;;;;;;;;;;;;13.52;100.00;98854.70;104974;1271;62672;-70
2022/09/12 05:32:02;;;;;;;;;;;;;;;13.50;100.00;98860.35;104966;1270;62100;-71
2022/09/12 05:34:28;;;;;;;;;;;;;;;13.41;100.00;98863.97;104987;1270;62180;-70
2022/09/12 05:36:54;;;;;;;;;;;;;;;13.67;100.00;98866.86;104880;1270;62126;-71
2022/09/12 05:39:22;;;;;;;;;;;;;;;13.63;100.00;98870.96;105177;1271;62259;-70
2022/09/12 05:41:48;;;;;;;;;;;;;;;13.52;100.00;98874.31;105135;1270;62524;-70
2022/09/12 05:44:14;;;;;;;;;;;;;;;13.32;100.00;98873.95;105104;1270;62201;-71
2022/09/12 05:46:42;;;;;;;;;;;;;;;13.20;100.00;98879.38;104983;1271;62190;-71
2022/09/12 05:49:10;;;;;;;;;;;;;;;13.05;100.00;98883.08;105061;1270;62175;-70
2022/09/12 05:51:37;;;;;;;;;;;;;;;12.93;100.00;98884.52;105015;1270;62097;-71
2022/09/12 05:54:06;;;;;;;;;;;;;;;12.83;100.00;98887.13;105182;1270;61977;-71
2022/09/12 05:56:37;;;;;;;;;;;;;;;12.75;100.00;98882.22;105276;1270;77175;-69
2022/09/12 05:59:05;;;;;;;;;;;;;;;12.62;100.00;98884.42;105011;1270;69374;-70
2022/09/12 06:01:32;;;;;;;;;;;;;;;12.61;100.00;98886.86;105170;1270;74620;-69
2022/09/12 06:03:59;;;;;;;;;;;;;;;12.79;100.00;98886.36;105146;1270;62130;-70
2022/09/12 06:06:26;;;;;;;;;;;;;;;13.09;100.00;98880.25;105200;1270;62895;-70
2022/09/12 06:08:55;;;;;;;;;;;;;;;13.42;100.00;98879.81;105139;1270;76200;-70
2022/09/12 06:11:22;;;;;;;;;;;;;;;13.42;100.00;98881.58;105002;1271;68886;-70
2022/09/12 06:13:49;;;;;;;;;;;;;;;13.48;100.00;98876.64;105166;1270;73605;-71
2022/09/12 06:16:16;;;;;;;;;;;;;;;13.62;100.00;98870.67;105110;1270;62175;-71
2022/09/12 06:18:52;;;;;;;;;;;;;;;13.53;100.00;98871.75;105083;1270;62121;-71
2022/09/12 06:21:19;;;;;;;;;;;;;;;13.60;100.00;98874.80;105086;1270;77207;-71
2022/09/12 06:23:45;;;;;;;;;;;;;;;13.75;100.00;98873.54;104177;1270;1516016;-71
2022/09/12 06:26:12;;;;;;;;;;;;;;;13.74;100.00;98875.76;105133;1271;74233;-71
2022/09/12 06:28:39;;;;;;;;;;;;;;;13.75;100.00;98879.46;105174;1270;62226;-70
2022/09/12 06:31:06;;;;;;;;;;;;;;;13.78;100.00;98879.03;105026;1270;62216;-70
2022/09/12 06:33:35;;;;;;;;;;;;;;;13.69;100.00;98882.44;105227;1270;75894;-70
2022/09/12 06:36:11;;;;;;;;;;;;;;;13.68;100.00;98879.48;105079;1270;69490;-70
2022/09/12 06:38:37;;;;;;;;;;;;;;;13.61;100.00;98879.14;105161;1270;73480;-70
2022/09/12 06:41:06;;;;;;;;;;;;;;;13.52;100.00;98888.48;104707;1274;62279;-70
2022/09/12 06:43:32;;;;;;;;;;;;;;;13.39;100.00;98890.32;105155;1270;62043;-70
2022/09/12 06:45:58;;;;;;;;;;;;;;;13.44;100.00;98894.66;105166;1270;62174;-70
2022/09/12 06:48:24;;;;;;;;;;;;;;;13.54;100.00;98895.04;105095;1268;62190;-70
2022/09/12 06:50:57;;;;;;;;;;;;;;;13.67;100.00;98899.55;105093;1270;62217;-69
2022/09/12 06:53:23;;;;;;;;;;;;;;;13.69;100.00;98898.64;105102;1270;62182;-71
2022/09/12 06:55:55;;;;;;;;;;;;;;;13.73;100.00;98901.35;105169;1270;62188;-69
2022/09/12 06:58:21;;;;;;;;;;;;;;;13.79;100.00;98902.84;105174;1270;77612;-71
2022/09/12 07:00:47;;;;;;;;;;;;;;;14.03;100.00;98900.00;105022;1270;62158;-70
2022/09/12 07:03:13;;;;;;;;;;;;;;;14.30;100.00;98903.63;105042;1270;62178;-70
2022/09/12 07:05:39;;;;;;;;;;;;;;;14.37;100.00;98904.45;105124;1270;63049;-70
2022/09/12 07:08:05;;;;;;;;;;;;;;;14.27;100.00;98910.17;105137;1270;62245;-69
2022/09/12 07:10:31;;;;;;;;;;;;;;;14.09;100.00;98912.88;105147;1270;62541;-71
2022/09/12 07:12:57;;;;;;;;;;;;;;;13.96;100.00;98914.64;105132;1270;62035;-70
2022/09/12 07:15:24;;;;;;;;;;;;;;;14.09;100.00;98915.19;105106;1270;62083;-70
2022/09/12 07:17:50;;;;;;;;;;;;;;;14.24;100.00;98915.38;105124;1270;62210;-69
2022/09/12 07:20:15;;;;;;;;;;;;;;;14.35;100.00;98918.92;105150;1270;62184;-71
2022/09/12 07:22:42;;;;;;;;;;;;;;;14.40;100.00;98915.00;105132;1270;70585;-71
2022/09/12 07:25:10;;;;;;;;;;;;;;;14.61;100.00;98913.04;105161;1270;62518;-71
2022/09/12 07:27:36;;;;;;;;;;;;;;;14.78;100.00;98915.67;105124;1271;62056;-71
2022/09/12 07:30:06;;;;;;;;;;;;;;;14.86;100.00;98913.56;105115;1270;62176;-71
2022/09/12 07:32:32;;;;;;;;;;;;;;;14.85;100.00;98909.92;105128;1270;76146;-70
2022/09/12 07:34:58;;;;;;;;;;;;;;;14.81;100.00;98916.69;105135;1270;62180;-70
2022/09/12 07:37:25;;;;;;;;;;;;;;;14.73;100.00;98922.77;105143;1270;62181;-70
2022/09/12 07:39:51;;;;;;;;;;;;;;;14.75;100.00;98921.54;105138;1270;62184;-70
2022/09/12 07:42:17;;;;;;;;;;;;;;;14.87;100.00;98924.21;105164;1270;62207;-70
2022/09/12 07:44:43;;;;;;;;;;;;;;;14.92;100.00;98924.68;105145;1270;63863;-70
2022/09/12 07:47:09;;;;;;;;;;;;;;;14.92;100.00;98926.64;105165;1270;62075;-70
2022/09/12 07:49:35;;;;;;;;;;;;;;;14.89;100.00;98932.29;105135;1270;62161;-71
2022/09/12 07:52:01;;;;;;;;;;;;;;;14.72;100.00;98928.37;105136;1270;62277;-71
2022/09/12 07:54:27;;;;;;;;;;;;;;;14.70;100.00;98932.85;105208;1270;62274;-71
2022/09/12 07:56:53;;;;;;;;;;;;;;;14.77;100.00;98936.15;105168;1270;69210;-72
2022/09/12 07:59:20;;;;;;;;;;;;;;;14.88;100.00;98937.02;105141;1269;62115;-70
2022/09/12 08:01:46;;;;;;;;;;;;;;;15.06;100.00;98933.72;105132;1270;62178;-71
2022/09/12 08:04:11;;;;;;;;;;;;;;;15.30;100.00;98930.72;105156;1270;62124;-71
2022/09/12 08:06:38;;;;;;;;;;;;;;;15.39;100.00;98933.16;105155;1270;62111;-70
2022/09/12 08:09:04;;;;;;;;;;;;;;;15.31;100.00;98931.46;105185;1270;62074;-71
2022/09/12 08:11:31;;;;;;;;;;;;;;;15.42;100.00;98934.89;105167;1270;62098;-71
2022/09/12 08:13:57;;;;;;;;;;;;;;;15.62;100.00;98931.13;105056;1270;62174;-70
2022/09/12 08:16:25;;;;;;;;;;;;;;;15.70;100.00;98932.79;105087;1270;62115;-70
2022/09/12 08:18:50;;;;;;;;;;;;;;;15.67;100.00;98936.20;105077;1270;62041;-70
2022/09/12 08:21:18;;;;;;;;;;;;;;;15.76;100.00;98936.92;105214;1270;62081;-70
2022/09/12 08:23:45;;;;;;;;;;;;;;;15.94;100.00;98940.13;105257;1270;62656;-69
2022/09/12 08:26:12;;;;;;;;;;;;;;;16.08;100.00;98936.17;105262;1270;62136;-70
2022/09/12 08:28:42;;;;;;;;;;;;;;;16.19;100.00;98931.22;105286;1270;61703;-71
2022/09/12 08:31:10;;;;;;;;;;;;;;;16.41;100.00;98933.19;105389;1270;76105;-71
2022/09/12 08:33:37;;;;;;;;;;;;;;;16.71;100.00;98929.44;105183;1270;69820;-70
2022/09/12 08:36:10;;;;;;;;;;;;;;;16.91;100.00;98931.05;105112;1270;62082;-70
2022/09/12 08:38:37;;;;;;;;;;;;;;;16.89;100.00;98930.56;105302;1270;62095;-70
2022/09/12 08:41:26;;;;;;;;;;;;;;;16.73;100.00;98931.23;105166;1270;62500;-70
2022/09/12 08:43:58;;;;;;;;;;;;;;;16.77;100.00;98926.80;104512;1277;76379;-71
2022/09/12 08:46:27;;;;;;;;;;;;;;;16.84;100.00;98918.77;104529;1277;69287;-71
2022/09/12 08:48:54;;;;;;;;;;;;;;;16.88;100.00;98922.12;104513;1278;74535;-71
2022/09/12 08:51:21;;;;;;;;;;;;;;;16.86;100.00;98922.91;104534;1277;62279;-71
2022/09/12 08:53:48;;;;;;;;;;;;;;;16.84;100.00;98923.96;104665;1277;62118;-70
2022/09/12 08:56:15;;;;;;;;;;;;;;;17.00;100.00;98918.15;104486;1277;76360;-71
2022/09/12 08:58:43;;;;;;;;;;;;;;;17.07;100.00;98916.98;104514;1277;70436;-70
2022/09/12 09:01:24;;;;;;;;;;;;;;;17.08;100.00;98917.77;104512;1277;74335;-70
2022/09/12 09:04:00;;;;;;;;;;;;;;;17.12;100.00;98917.76;104527;1277;62206;-70
2022/09/12 09:06:52;;;;;;;;;;;;;;;17.02;100.00;98922.11;104553;1277;62190;-71
2022/09/12 09:09:25;;;;;;;;;;;;;;;17.15;100.00;98916.71;103942;1284;76195;-71
2022/09/12 09:12:05;;;;;;;;;;;;;;;17.33;100.00;98910.30;103979;1284;70549;-71
2022/09/12 09:14:50;;;;;;;;;;;;;;;17.48;100.00;98911.23;104101;1284;71306;-70
2022/09/12 09:17:25;;;;;;;;;;;;;;;17.55;100.00;98912.34;103896;1284;62214;-70
2022/09/12 09:19:58;;;;;;;;;;;;;;;17.47;100.00;98914.16;103980;1283;61980;-70
2022/09/12 09:22:31;;;;;;;;;;;;;;;17.46;100.00;98912.35;104538;1276;76015;-70
2022/09/12 09:25:01;;;;;;;;;;;;;;;17.46;100.00;98912.89;104608;1276;70424;-70
2022/09/12 09:27:28;;;;;;;;;;;;;;;17.53;100.00;98911.98;104610;1276;74445;-70
2022/09/12 09:29:55;;;;;;;;;;;;;;;17.56;100.00;98911.04;104623;1276;62827;-70
2022/09/12 09:32:39;;;;;;;;;;;;;;;17.43;100.00;98915.45;104643;1276;62240;-71
2022/09/12 09:35:37;;;;;;;;;;;;;;;17.46;100.00;98919.64;104723;1276;77340;-71
2022/09/12 09:38:06;;;;;;;;;;;;;;;17.29;100.00;98922.55;104314;1282;69504;-70
2022/09/12 09:40:38;;;;;;;;;;;;;;;17.20;100.00;98921.27;104452;1282;73029;-71
2022/09/12 09:43:26;;;;;;;;;;;;;;;17.08;100.00;98924.42;104340;1282;62201;-71
2022/09/12 09:45:52;;;;;;;;;;;;;;;17.10;100.00;98920.11;104432;1276;62144;-71
2022/09/12 09:48:19;;;;;;;;;;;;;;;17.25;100.00;98913.96;104674;1276;62313;-69
2022/09/12 09:50:48;;;;;;;;;;;;;;;17.42;100.00;98918.27;104702;1276;69689;-69
2022/09/12 09:53:26;;;;;;;;;;;;;;;17.53;100.00;98915.98;104748;1276;74314;-70
2022/09/12 09:55:54;;;;;;;;;;;;;;;17.83;100.00;98914.34;104635;1276;62280;-70
2022/09/12 09:58:32;;;;;;;;;;;;;;;17.78;100.00;98915.48;104791;1276;62264;-70
2022/09/12 10:01:00;;;;;;;;;;;;;;;17.69;100.00;98915.31;104515;1276;76779;-70
2022/09/12 10:03:30;;;;;;;;;;;;;;;17.63;100.00;98913.89;104634;1276;69350;-70
2022/09/12 10:05:58;;;;;;;;;;;;;;;17.58;100.00;98917.83;104634;1276;74563;-70
2022/09/12 10:08:26;;;;;;;;;;;;;;;17.39;100.00;98914.59;104641;1276;62051;-70
2022/09/12 10:10:53;;;;;;;;;;;;;;;17.21;100.00;98917.58;104648;1276;62266;-69
2022/09/12 10:13:24;;;;;;;;;;;;;;;17.19;100.00;98919.56;104470;1276;76406;-69
2022/09/12 10:15:57;;;;;;;;;;;;;;;17.36;100.00;98915.85;104956;1271;70515;-70
2022/09/12 10:18:32;;;;;;;;;;;;;;;17.51;100.00;98913.43;104954;1271;73562;-69
2022/09/12 10:21:00;;;;;;;;;;;;;;;17.77;100.00;98916.13;105053;1271;62160;-70
2022/09/12 10:23:39;;;;;;;;;;;;;;;18.11;100.00;98909.91;105152;1271;61979;-71
2022/09/12 10:26:10;;;;;;;;;;;;;;;18.51;100.00;98905.93;105065;1271;76279;-71
2022/09/12 10:28:38;;;;;;;;;;;;;;;18.75;100.00;98906.38;105019;1271;68995;-71
2022/09/12 10:31:05;;;;;;;;;;;;;;;18.96;100.00;98901.49;105160;1271;74118;-70
2022/09/12 10:33:36;;;;;;;;;;;;;;;19.14;100.00;98907.77;105013;1271;62117;-71
2022/09/12 10:36:02;;;;;;;;;;;;;;;19.13;100.00;98909.51;105140;1271;62063;-70
2022/09/12 10:38:32;;;;;;;;;;;;;;;19.21;100.00;98905.45;105079;1271;76174;-71
2022/09/12 10:41:00;;;;;;;;;;;;;;;19.16;100.00;98907.88;105056;1271;70300;-71
2022/09/12 10:43:26;;;;;;;;;;;;;;;18.94;100.00;98910.15;105049;1271;74372;-70
2022/09/12 10:46:11;;;;;;;;;;;;;;;18.72;100.00;98913.71;105082;1271;62070;-71
2022/09/12 10:48:37;;;;;;;;;;;;;;;18.40;100.00;98916.80;105078;1271;62101;-71
2022/09/12 10:51:03;;;;;;;;;;;;;;;18.09;100.00;98916.80;105041;1271;62108;-71
2022/09/12 10:53:40;;;;;;;;;;;;;;;17.80;100.00;98914.80;104991;1271;62180;-71
2022/09/12 10:56:15;;;;;;;;;;;;;;;17.64;100.00;98914.58;105100;1271;73254;-71
2022/09/12 10:58:55;;;;;;;;;;;;;;;17.75;100.00;98914.48;104829;1274;62393;-70
2022/09/12 11:01:35;;;;;;;;;;;;;;;17.93;100.00;98908.52;105104;1271;62066;-70
2022/09/12 11:04:20;;;;;;;;;;;;;;;18.03;100.00;98909.79;105083;1271;77059;-71
2022/09/12 11:07:04;;;;;;;;;;;;;;;18.16;100.00;98908.92;104924;1271;68035;-71
2022/09/12 11:09:30;;;;;;;;;;;;;;;18.31;100.00;98904.21;105060;1271;73526;-70
2022/09/12 11:12:15;;;;;;;;;;;;;;;18.49;100.00;98901.09;105062;1271;62528;-71
2022/09/12 11:14:54;;;;;;;;;;;;;;;18.68;100.00;98896.98;105124;1271;62167;-71
2022/09/12 11:17:26;;;;;;;;;;;;;;;18.86;100.00;98897.85;105063;1271;76004;-72
2022/09/12 11:20:12;;;;;;;;;;;;;;;18.90;100.00;98898.98;105086;1271;69298;-70
2022/09/12 11:22:47;;;;;;;;;;;;;;;18.84;100.00;98901.16;105148;1271;73584;-71
2022/09/12 11:25:34;;;;;;;;;;;;;;;18.84;100.00;98896.41;105197;1271;62140;-70
2022/09/12 11:28:14;;;;;;;;;;;;;;;19.01;100.00;98893.09;105195;1271;61980;-70
2022/09/12 11:30:58;;;;;;;;;;;;;;;19.21;100.00;98890.80;105084;1271;77458;-70
2022/09/12 11:33:24;;;;;;;;;;;;;;;19.23;100.00;98891.52;105098;1271;70142;-71
2022/09/12 11:35:54;;;;;;;;;;;;;;;19.26;100.00;98896.27;105266;1271;72379;-70
2022/09/12 11:38:49;;;;;;;;;;;;;;;19.19;100.00;98894.48;105138;1271;62501;-70
2022/09/12 11:41:32;;;;;;;;;;;;;;;19.12;100.00;98893.08;104526;1279;62259;-70
2022/09/12 11:43:58;;;;;;;;;;;;;;;18.97;100.00;98896.03;104530;1280;76434;-70
2022/09/12 11:46:35;;;;;;;;;;;;;;;18.88;100.00;98892.23;104536;1280;62258;-70
2022/09/12 11:49:07;;;;;;;;;;;;;;;18.90;100.00;98886.44;104531;1279;73735;-70
2022/09/12 11:51:34;;;;;;;;;;;;;;;19.05;100.00;98891.73;104486;1280;62142;-70
2022/09/12 11:54:08;;;;;;;;;;;;;;;19.13;100.00;98896.40;104506;1279;62140;-70
2022/09/12 11:56:38;;;;;;;;;;;;;;;19.08;100.00;98898.80;104516;1280;77804;-71
2022/09/12 11:59:10;;;;;;;;;;;;;;;19.22;100.00;98900.65;104535;1280;69454;-70
2022/09/12 12:01:43;;;;;;;;;;;;;;;19.28;100.00;98899.63;104564;1280;74322;-71
2022/09/12 12:04:12;;;;;;;;;;;;;;;19.42;100.00;98898.73;104534;1280;62089;-70
2022/09/12 12:06:44;;;;;;;;;;;;;;;19.49;100.00;98901.02;104534;1280;62120;-71
2022/09/12 12:09:11;;;;;;;;;;;;;;;19.39;100.00;98903.34;104580;1280;76792;-71
2022/09/12 12:11:40;;;;;;;;;;;;;;;19.16;100.00;98903.38;104549;1280;69134;-71
2022/09/12 12:14:14;;;;;;;;;;;;;;;18.98;100.00;98904.45;104498;1280;74841;-71
2022/09/12 12:16:40;;;;;;;;;;;;;;;18.91;100.00;98895.75;104613;1280;62177;-71
2022/09/12 12:19:25;;;;;;;;;;;;;;;18.87;100.00;98893.44;104925;1271;62089;-70
2022/09/12 12:21:54;;;;;;;;;;;;;;;18.77;100.00;98894.29;105047;1271;77151;-71
2022/09/12 12:24:23;;;;;;;;;;;;;;;18.53;100.00;98897.23;105051;1271;69446;-70
2022/09/12 12:26:51;;;;;;;;;;;;;;;18.51;100.00;98893.55;105057;1271;74502;-69
2022/09/12 12:29:17;;;;;;;;;;;;;;;18.65;100.00;98891.38;105080;1271;62101;-70
2022/09/12 12:32:00;;;;;;;;;;;;;;;18.84;100.00;98888.02;105078;1271;62120;-71
2022/09/12 12:34:27;;;;;;;;;;;;;;;18.93;100.00;98890.33;105106;1271;76233;-71
2022/09/12 12:36:54;;;;;;;;;;;;;;;18.93;100.00;98891.96;105057;1271;62168;-71
2022/09/12 12:39:31;;;;;;;;;;;;;;;18.84;100.00;98892.11;105026;1271;62085;-71